Hovedside
METAR-TAF:

METAR-TAF

Lufthavner :

Tasjkent internasjonale lufthavn

Tasjkent, Usbekistan

breddegrad: 41-16N, lengdegrad: 069-16E, høyde over havet: 489 m

Gjeldene værobservasjon

Denne rapporten ble laget for 47 minutter siden, klokken 16:30 UTC
Vind 12 kt fra Nord-nordvest, skiftende mellom Nordvest og Nordøst
Temperatur 32°C
Luftfuktighet 26%
Trykk 1001 hPa
Sikt 10 km eller mer
ingen skyer under 1500 m og ingen bygeskyer

METAR: UTTT 231630Z 33012KT 310V040 CAVOK 32/10 Q1001 R08R/CLRD70 NOSIG

Tid: 22:17 (17:17 UTC)

Varsel

Denne rapporten ble laget for 6 timer og 17 minutter siden, klokken 11:00 UTC
Varsel gyldig fra 23. klokken 12 UTC til 24. klokken 12 UTC
Vind 10 kt fra Nordvest
Sikt: 7000 m
Midlertidig
fra 23. klokken 12 UTC til 23. klokken 20 UTC
Vind 16 kt fra Nord med vindkast opp mot 26 kt

TAF: UTTT 231100Z 2312/2412 31010KT 7000 NSC TX37/2410Z TEMPO 2312/2320 35016G26KT

Værobservasjoner og værvarsel for over 4000 flyplasser (METAR- og TAF-rapporter).

Tilgjengelige stasjoner er representert av de røde og gule prikkene på kartet.

Hold musepekeren over prikken for å se navnet på stasjonen.

Klikk så for å se værobservasjoner og -varsler.

For å forandre kartet kan du klikke på den grønne knappen med svart kryss for å zoome inn, på den grønne knappen med strek for å zoome ut, eller på de grønne pilene for å se tilstøtende kart.


METAR-TAF: